RJKN(METAR)
02/20 18:00
RJKN 200900Z 03007KT 9999 FEW020 SCT030 BKN050 20/16 Q1020 RMK
A3013=
戻る
トップページへ戻る
IMOC Co,.Ltd.